Decoded Metar for KLFK (LUFKIN in TX, USA) (IATA:LFK) | Meteo·Mobile Aviation Weather
aviador You're here:

KLFK Decoded Metar

LUFKIN in TX, USA
Report Time2019-03-19 17:53:00
UTC Time2019-03-19 18:45:27
Flight Rules vfr VFR
Wind120° at 07 kt
W.Decomp.*RWY 15: 5.7 kt HW 4 kt LCW
RWY 07: 4.9 kt HW 4.9 kt RCW
W.Rank120° ranks 7
Current wind is above 120° avg. (5.5)
Visibility9999 m
Phenomena:N/A
Clouds:N/A
Expected CloudBase > 4,800 ft AGL from Temp-Dew spread
CeilingNone
Temp18°C (ISA +4)
Dew Point06°C (46% RH)
AAT14.6°C
QNH1026 hPa
Density Alt400 ft
Elevation289 ft
Report Wrong Elevation
Raw Report
KLFK 191753Z AUTO 12007KT 10SM CLR 18/06 A3031 RMK AO2 SLP264
T01780056 10178 20067 58005=

Extra information for KLFK:More info

Metar Taf Metar & Taf Last 4 Metars F.Rules Stats Wind Profile Meteogram Temp Stats Airport Information Weather charts Add Link Nearby VenuesMetar ALERT Operation Metar Decoded Social comments

AIRNAV info for KLFK